Solen, North Dakota
Current Conditions -  °F | °C
As of 11:52 PM on Friday 24 Oct 2014 (Local Time) from KBIS Reporting Station
Clear Clear  
Wind Chill: 44°   Ceiling: Unl
Heat Index: 48°   Visibility: 10mi
Dew Point: 30°   Wind: 9mph
Humidity: 50%   Direction: 290°WNW
Pressure: 30.07"   Gusts: NA
Location:  46.39°N, 100.8°W
Report Text: KBIS 250552Z 29008KT 10SM CLR 09/M01 A3007 RMK AO2 SLP184 T00891011 10167 20078 402280028 52013
Loading
Personal Weather Stations






























Interactive Weather Map
Tropical Storm Tracking
New forecast layout! Learn more

10-Day Weather Forecast

Advertisements
Track Severe Weather on mobile